Flight Track Log - Related Links

Times and Time Zones

All times are in EDT time to prevent confusion due to time zone crossing. See the SWA9013 flight status page for this flight to view local times or setup timezone preferences in your user account.

Time Position Orientation Groundspeed Altitude Reporting Facility
EDT Latitude Longitude Course Direction KTS MPH feet Rate Location/Type
Wed 04:32:39 PM 39.1294 -76.6861 90° East 173 199 6,100  Level Washington Center
Wed 04:33:40 PM 39.1344 -76.5897 86° East 145 167 8,900 2,777 Climbing Washington Center
Wed 04:34:40 PM 39.1394 -76.4772 87° East 234 269 11,700 3,102 Climbing Washington Center
Wed 04:35:38 PM 39.1444 -76.3542 87° East 308 354 15,000 3,305 Climbing Washington Center
Wed 04:36:38 PM 39.1514 -76.2206 86° East 338 389 18,200 3,124 Climbing Washington Center
Wed 04:37:00 PM 39.1500 -76.3179 90° East  Level FlightAware Approximate
Wed 04:37:39 PM 39.1708 -76.0708 80° East 369 425 21,300  Level Washington Center
Wed 04:38:39 PM 39.1881 -75.9264 81° East 392 451 23,600 2,213 Climbing Washington Center
Wed 04:39:41 PM 39.2550 -75.8033 55° Northeast 391 450 25,800 2,150 Climbing Washington Center
Wed 04:40:39 PM 39.3406 -75.6881 46° Northeast 414 476 27,900 2,017 Climbing Washington Center
Wed 04:41:40 PM 39.4303 -75.5756 44° Northeast 428 493 29,800 1,675 Climbing Washington Center
Wed 04:43:13 PM 39.5639 -75.4028 45° Northeast 452 520 32,200 1,675 Climbing New York Center
Wed 04:44:14 PM 39.6564 -75.2794 46° Northeast 463 533 34,100 1,983 Climbing New York Center
Wed 04:45:14 PM 39.7533 -75.1372 48° Northeast 472 543 36,200 1,475 Climbing New York Center
Wed 04:46:12 PM 39.8392 -75.0153 47° Northeast 472 543 37,000 403 Climbing New York Center
Wed 04:47:13 PM 39.9269 -74.8881 48° Northeast 477 549 37,000  Level New York Center
Wed 04:48:13 PM 40.0189 -74.7661 45° Northeast 472 543 37,000  Level New York Center
Wed 04:49:13 PM 40.1064 -74.6436 47° Northeast 467 537 37,000 -50 Level New York Center
Wed 04:50:14 PM 40.1958 -74.5181 47° Northeast 467 537 36,900 -496 Descending New York Center
Wed 04:51:14 PM 40.2869 -74.4061 43° Northeast 457 526 36,000 -957 Descending New York Center
Wed 04:53:41 PM 40.5156 -74.1844 36° Northeast 427 491 33,600 -986 Descending Boston Center
Wed 04:54:41 PM 40.6208 -74.1081 29° Northeast 427 491 32,600 -1,017 Descending Boston Center
Wed 04:55:39 PM 40.6850 -73.9919 54° Northeast 405 466 31,600 -958 Descending Boston Center
Wed 04:56:40 PM 40.7203 -73.8447 72° East 386 444 30,700 -836 Descending Boston Center
Wed 04:57:41 PM 40.7742 -73.6925 65° Northeast 419 482 29,900 -1,831 Descending Boston Center
Wed 04:58:38 PM 40.8258 -73.5317 67° East 449 517 27,100 -2,339 Descending Boston Center
Wed 04:59:39 PM 40.8897 -73.3900 59° Northeast 451 519 25,300 -1,537 Descending Boston Center
Wed 05:00:39 PM 40.9803 -73.2622 47° Northeast 443 510 24,000 -1,140 Descending Boston Center
Wed 05:01:40 PM 41.0603 -73.1475 47° Northeast 429 494 23,000 -492 Descending Boston Center
Wed 05:02:41 PM 41.1381 -73.0297 49° Northeast 429 494 23,000  Level Boston Center
Wed 05:03:40 PM 41.2136 -72.9092 50° Northeast 423 487 23,000  Level Boston Center
Wed 05:04:41 PM 41.2725 -72.7714 60° Northeast 423 487 23,000  Level Boston Center
Wed 05:05:39 PM 41.3269 -72.6253 64° Northeast 428 493 23,000  Level Boston Center
Wed 05:06:39 PM 41.3772 -72.4844 65° Northeast 428 493 23,000  Level Boston Center
Wed 05:07:40 PM 41.4314 -72.3431 63° Northeast 423 487 23,000  Level Boston Center
Wed 05:08:40 PM 41.4811 -72.2019 65° Northeast 418 481 23,000 -843 Level Boston Center
Wed 05:09:41 PM 41.5244 -72.0853 64° Northeast 418 481 21,300 -2,529 Descending Boston Center
Wed 05:10:41 PM 41.5822 -71.9156 65° Northeast 422 486 17,900 -2,644 Descending Boston Center
Wed 05:11:39 PM 41.6231 -71.7764 69° East 409 471 16,100 -1,678 Descending Boston Center
Wed 05:12:39 PM 41.6578 -71.6594 68° East 365 420 14,600 -1,537 Descending Boston Center
Wed 05:13:40 PM 41.6864 -71.5561 70° East 328 377 13,000 -1,736 Descending Boston Center
Wed 05:14:40 PM 41.7228 -71.4389 67° East 309 356 11,100 -992 Descending Boston Center
Wed 05:15:41 PM 41.7450 -71.3467 72° East 298 343 11,000 -50 Descending Boston Center
Wed 05:16:41 PM 41.7583 -71.2433 80° East 268 308 11,000  Level Boston Center
Wed 05:17:39 PM 41.8125 -71.2258 14° North 200 230 11,000 -661 Level Boston Center
Wed 05:18:39 PM 41.8792 -71.2272 359° North 185 213 9,700 -1,200 Descending Boston Center
Wed 05:19:39 PM 41.9331 -71.2122 12° North 214 246 8,600 -893 Descending Boston Center
Wed 05:20:40 PM 41.9869 -71.1861 20° North 203 234 7,900 -738 Descending Boston Center
Wed 05:21:41 PM 42.0264 -71.1683 19° North 171 197 7,100 -942 Descending Boston Center
Wed 05:22:41 PM 42.0742 -71.1478 18° North 163 188 6,000 -1,017 Descending Boston Center
Wed 05:23:39 PM 42.1156 -71.1275 20° North 163 188 5,100 -1,017 Descending Boston Center
Wed 05:24:39 PM 42.1633 -71.1042 20° North 163 188 4,000 -942 Descending Boston Center
Wed 05:25:40 PM 42.2047 -71.0836 20° North 163 188 3,200 -942 Descending Boston Center
Wed 05:26:40 PM 42.2544 -71.0572 21° North 163 188 2,100 -942 Descending Boston Center
Wed 05:27:41 PM 42.2939 -71.0394 18° North 163 188 1,300 -787 Descending Boston Center
Wed 05:29:00 PM 42.3500 -71.0000 North  Level FlightAware Approximate
Wed 05:36:00 PM 42.3630 -71.0064 North  Level Estimated
Wed 05:37:00 PM 42.3630 -71.0064 North  Level Estimated

Login

Don't have an account? Register now (free) for customized features, flight alerts, and more!